Flight Track Log - Related Links

Times and Time Zones

All times are in EDT time to prevent confusion due to time zone crossing. See the OPT429 flight status page for this flight to view local times or setup timezone preferences in your user account.

Time Position Orientation Groundspeed Altitude Reporting Facility
EDT Latitude Longitude Course Direction KTS MPH feet Rate Location/Type
Sat 09:39:15 AM 41.8333 -87.7667 281° West 206 237 2,600  Level Chicago TRACON
Sat 09:40:03 AM 41.8100 -87.8219 240° Southwest 200 230 3,000 220 Climbing Chicago Center
Sat 09:41:04 AM 41.7858 -87.8969 247° West 218 251 3,000  Level Chicago Center
Sat 09:42:06 AM 41.7819 -87.9733 266° West 191 220 3,000 48 Level Chicago Center
Sat 09:43:08 AM 41.7806 -88.0339 268° West 166 191 3,100  Climbing Chicago Center
Sat 09:44:00 AM 41.8602 -88.2045 281° West  Level FlightAware Approximate
Sat 09:44:09 AM 41.7792 -88.1128 269° West 199 229 3,000  Level Chicago Center
Sat 09:45:11 AM 41.7772 -88.1894 268° West 205 236 3,000  Level Chicago Center
Sat 09:46:13 AM 41.7731 -88.2622 266° West 202 232 3,000  Level Chicago Center
Sat 09:47:15 AM 41.7389 -88.3269 235° Southwest 200 230 3,000  Level Chicago Center
Sat 09:48:16 AM 41.7097 -88.3872 237° Southwest 196 226 3,000  Level Chicago Center
Sat 09:49:18 AM 41.6858 -88.4564 245° Southwest 200 230 3,000  Level Chicago Center
Sat 09:50:20 AM 41.6836 -88.5269 268° West 191 220 3,000  Level Chicago Center
Sat 09:51:22 AM 41.6811 -88.5992 267° West 192 221 3,000  Level Chicago Center
Sat 09:52:24 AM 41.6800 -88.6772 269° West 193 222 3,000  Level Chicago Center
Sat 09:53:25 AM 41.6833 -88.7481 274° West 193 222 3,000  Level Chicago Center
Sat 09:54:27 AM 41.7428 -88.7481 360° North 194 223 3,000 -145 Level Chicago Center
Sat 09:55:29 AM 41.7653 -88.6861 64° Northeast 185 213 2,700 -145 Descending Chicago Center
Sat 09:56:31 AM 41.7689 -88.6272 85° East 160 184 2,700 -339 Level Chicago Center
Sat 09:57:33 AM 41.7689 -88.5706 90° East 141 162 2,000 -677 Descending Chicago Center
Sat 09:58:35 AM 41.7700 -88.5253 88° East 123 142 1,300 -488 Descending Chicago Center
Sat 09:59:36 AM 41.7694 -88.4875 91° East 121 139 1,000 -295 Descending Chicago Center

Login

Don't have an account? Register now (free) for customized features, flight alerts, and more!